sensor_id;sensor_type;location;lat;lon;timestamp;pressure;altitude;pressure_sealevel;temperature;humidity
50977;BME280;36992;48.200;12.418;2023-04-08T00:01:05;96716.66;;;9.83;46.00
50977;BME280;36992;48.200;12.418;2023-04-08T00:03:31;96709.16;;;9.80;46.32
50977;BME280;36992;48.200;12.418;2023-04-08T00:05:58;96703.53;;;9.77;46.18
50977;BME280;36992;48.200;12.418;2023-04-08T00:08:28;96711.59;;;9.77;45.82
50977;BME280;36992;48.200;12.418;2023-04-08T00:10:56;96712.47;;;9.72;46.23
50977;BME280;36992;48.200;12.418;2023-04-08T00:13:22;96710.06;;;9.70;46.28
50977;BME280;36992;48.200;12.418;2023-04-08T00:15:49;96707.16;;;9.67;46.50
50977;BME280;36992;48.200;12.418;2023-04-08T00:18:15;96709.34;;;9.65;46.66
50977;BME280;36992;48.200;12.418;2023-04-08T00:20:43;96715.81;;;9.64;46.27
50977;BME280;36992;48.200;12.418;2023-04-08T00:23:09;96712.56;;;9.62;46.47
50977;BME280;36992;48.200;12.418;2023-04-08T00:25:37;96711.78;;;9.61;46.50
50977;BME280;36992;48.200;12.418;2023-04-08T00:28:04;96707.78;;;9.58;46.66
50977;BME280;36992;48.200;12.418;2023-04-08T00:30:30;96706.47;;;9.56;46.84
50977;BME280;36992;48.200;12.418;2023-04-08T00:32:57;96710.25;;;9.55;47.08
50977;BME280;36992;48.200;12.418;2023-04-08T00:35:23;96708.13;;;9.52;47.28
50977;BME280;36992;48.200;12.418;2023-04-08T00:37:50;96717.00;;;9.52;46.88
50977;BME280;36992;48.200;12.418;2023-04-08T00:40:17;96716.47;;;9.50;46.98
50977;BME280;36992;48.200;12.418;2023-04-08T00:42:45;96714.84;;;9.49;47.11
50977;BME280;36992;48.200;12.418;2023-04-08T00:45:12;96717.03;;;9.47;47.65
50977;BME280;36992;48.200;12.418;2023-04-08T00:47:38;96716.53;;;9.45;47.77
50977;BME280;36992;48.200;12.418;2023-04-08T00:50:07;96719.72;;;9.47;47.09
50977;BME280;36992;48.200;12.418;2023-04-08T00:52:34;96720.28;;;9.44;47.74
50977;BME280;36992;48.200;12.418;2023-04-08T00:55:01;96729.44;;;9.43;47.78
50977;BME280;36992;48.200;12.418;2023-04-08T00:57:27;96718.97;;;9.41;47.73
50977;BME280;36992;48.200;12.418;2023-04-08T00:59:55;96720.59;;;9.42;47.65
50977;BME280;36992;48.200;12.418;2023-04-08T01:02:25;96721.38;;;9.43;47.29
50977;BME280;36992;48.200;12.418;2023-04-08T01:05:00;96717.91;;;9.42;47.17
50977;BME280;36992;48.200;12.418;2023-04-08T01:07:30;96719.28;;;9.40;47.75
50977;BME280;36992;48.200;12.418;2023-04-08T01:10:01;96726.53;;;9.39;47.78
50977;BME280;36992;48.200;12.418;2023-04-08T01:12:31;96709.59;;;9.39;47.51
50977;BME280;36992;48.200;12.418;2023-04-08T01:15:02;96719.53;;;9.38;47.95
50977;BME280;36992;48.200;12.418;2023-04-08T01:17:31;96721.19;;;9.34;48.76
50977;BME280;36992;48.200;12.418;2023-04-08T01:20:00;96722.56;;;9.31;48.72
50977;BME280;36992;48.200;12.418;2023-04-08T01:22:36;96724.69;;;9.35;47.58
50977;BME280;36992;48.200;12.418;2023-04-08T01:25:09;96720.94;;;9.30;48.19
50977;BME280;36992;48.200;12.418;2023-04-08T01:27:39;96730.09;;;9.29;48.76
50977;BME280;36992;48.200;12.418;2023-04-08T01:30:07;96721.53;;;9.27;48.89
50977;BME280;36992;48.200;12.418;2023-04-08T01:32:34;96719.13;;;9.26;48.74
50977;BME280;36992;48.200;12.418;2023-04-08T01:35:02;96726.38;;;9.25;49.05
50977;BME280;36992;48.200;12.418;2023-04-08T01:37:29;96719.41;;;9.24;48.59
50977;BME280;36992;48.200;12.418;2023-04-08T01:39:56;96722.09;;;9.24;48.68
50977;BME280;36992;48.200;12.418;2023-04-08T01:42:25;96718.31;;;9.25;48.35
50977;BME280;36992;48.200;12.418;2023-04-08T01:44:56;96724.72;;;9.29;48.24
50977;BME280;36992;48.200;12.418;2023-04-08T01:47:24;96725.81;;;9.28;48.52
50977;BME280;36992;48.200;12.418;2023-04-08T01:49:51;96725.00;;;9.28;48.66
50977;BME280;36992;48.200;12.418;2023-04-08T01:52:19;96729.59;;;9.27;48.91
50977;BME280;36992;48.200;12.418;2023-04-08T01:54:47;96730.69;;;9.26;48.94
50977;BME280;36992;48.200;12.418;2023-04-08T01:57:18;96732.00;;;9.29;48.52
50977;BME280;36992;48.200;12.418;2023-04-08T01:59:50;96727.69;;;9.28;48.50
50977;BME280;36992;48.200;12.418;2023-04-08T02:02:19;96728.00;;;9.26;48.76
50977;BME280;36992;48.200;12.418;2023-04-08T02:04:47;96737.72;;;9.22;48.93
50977;BME280;36992;48.200;12.418;2023-04-08T02:07:13;96741.47;;;9.21;49.09
50977;BME280;36992;48.200;12.418;2023-04-08T02:09:40;96726.94;;;9.22;48.94
50977;BME280;36992;48.200;12.418;2023-04-08T02:12:07;96734.50;;;9.20;48.98
50977;BME280;36992;48.200;12.418;2023-04-08T02:14:33;96735.56;;;9.19;49.35
50977;BME280;36992;48.200;12.418;2023-04-08T02:17:04;96727.78;;;9.23;48.41
50977;BME280;36992;48.200;12.418;2023-04-08T02:19:39;96726.94;;;9.22;48.20
50977;BME280;36992;48.200;12.418;2023-04-08T02:22:09;96727.22;;;9.21;48.66
50977;BME280;36992;48.200;12.418;2023-04-08T02:24:37;96734.28;;;9.16;49.43
50977;BME280;36992;48.200;12.418;2023-04-08T02:27:09;96732.88;;;9.19;48.86
50977;BME280;36992;48.200;12.418;2023-04-08T02:29:36;96729.19;;;9.15;49.69
50977;BME280;36992;48.200;12.418;2023-04-08T02:32:05;96731.03;;;9.14;49.54
50977;BME280;36992;48.200;12.418;2023-04-08T02:34:36;96733.47;;;9.16;49.18
50977;BME280;36992;48.200;12.418;2023-04-08T02:37:04;96732.41;;;9.12;49.73
50977;BME280;36992;48.200;12.418;2023-04-08T02:39:31;96737.28;;;9.10;50.08
50977;BME280;36992;48.200;12.418;2023-04-08T02:41:58;96728.41;;;9.09;49.95
50977;BME280;36992;48.200;12.418;2023-04-08T02:44:24;96727.63;;;9.09;49.86
50977;BME280;36992;48.200;12.418;2023-04-08T02:46:51;96740.22;;;9.08;50.16
50977;BME280;36992;48.200;12.418;2023-04-08T02:49:17;96733.53;;;9.06;50.09
50977;BME280;36992;48.200;12.418;2023-04-08T02:51:45;96733.53;;;9.06;49.86
50977;BME280;36992;48.200;12.418;2023-04-08T02:54:11;96738.13;;;9.05;49.83
50977;BME280;36992;48.200;12.418;2023-04-08T02:56:38;96737.31;;;9.04;50.13
50977;BME280;36992;48.200;12.418;2023-04-08T02:59:05;96740.28;;;9.03;50.77
50977;BME280;36992;48.200;12.418;2023-04-08T03:01:32;96735.97;;;9.02;50.62
50977;BME280;36992;48.200;12.418;2023-04-08T03:03:58;96743.25;;;9.01;49.87
50977;BME280;36992;48.200;12.418;2023-04-08T03:06:25;96737.06;;;9.01;50.12
50977;BME280;36992;48.200;12.418;2023-04-08T03:08:53;96740.28;;;9.03;50.15
50977;BME280;36992;48.200;12.418;2023-04-08T03:11:19;96748.63;;;9.01;50.10
50977;BME280;36992;48.200;12.418;2023-04-08T03:13:46;96748.34;;;9.03;50.08
50977;BME280;36992;48.200;12.418;2023-04-08T03:16:12;96748.63;;;9.01;50.89
50977;BME280;36992;48.200;12.418;2023-04-08T03:18:39;96749.16;;;9.03;50.35
50977;BME280;36992;48.200;12.418;2023-04-08T03:21:06;96744.03;;;9.02;50.43
50977;BME280;36992;48.200;12.418;2023-04-08T03:23:32;96747.53;;;9.02;50.59
50977;BME280;36992;48.200;12.418;2023-04-08T03:26:00;96749.97;;;9.04;50.61
50977;BME280;36992;48.200;12.418;2023-04-08T03:28:26;96748.63;;;9.01;50.59
50977;BME280;36992;48.200;12.418;2023-04-08T03:30:53;96752.91;;;9.02;50.78
50977;BME280;36992;48.200;12.418;2023-04-08T03:33:20;96758.28;;;9.02;50.96
50977;BME280;36992;48.200;12.418;2023-04-08T03:35:46;96751.31;;;9.01;50.63
50977;BME280;36992;48.200;12.418;2023-04-08T03:38:12;96759.38;;;9.01;50.85
50977;BME280;36992;48.200;12.418;2023-04-08T03:40:39;96748.91;;;9.00;51.41
50977;BME280;36992;48.200;12.418;2023-04-08T03:43:07;96755.59;;;9.02;50.84
50977;BME280;36992;48.200;12.418;2023-04-08T03:45:33;96763.13;;;9.00;51.46
50977;BME280;36992;48.200;12.418;2023-04-08T03:47:59;96763.13;;;9.00;51.21
50977;BME280;36992;48.200;12.418;2023-04-08T03:50:26;96761.53;;;8.99;51.02
50977;BME280;36992;48.200;12.418;2023-04-08T03:52:52;96760.44;;;9.00;51.19
50977;BME280;36992;48.200;12.418;2023-04-08T03:55:19;96770.13;;;9.01;50.77
50977;BME280;36992;48.200;12.418;2023-04-08T03:57:46;96767.44;;;9.01;51.29
50977;BME280;36992;48.200;12.418;2023-04-08T04:00:15;96771.47;;;9.04;51.00
50977;BME280;36992;48.200;12.418;2023-04-08T04:02:41;96770.66;;;9.03;51.37
50977;BME280;36992;48.200;12.418;2023-04-08T04:05:08;96777.09;;;9.02;51.94
50977;BME280;36992;48.200;12.418;2023-04-08T04:07:34;96781.66;;;9.02;51.76
50977;BME280;36992;48.200;12.418;2023-04-08T04:10:01;96782.47;;;9.02;51.74
50977;BME280;36992;48.200;12.418;2023-04-08T04:12:27;96786.25;;;9.01;51.61
50977;BME280;36992;48.200;12.418;2023-04-08T04:14:54;96786.25;;;9.01;52.10
50977;BME280;36992;48.200;12.418;2023-04-08T04:17:22;96777.88;;;9.03;51.56
50977;BME280;36992;48.200;12.418;2023-04-08T04:19:48;96787.03;;;9.02;51.83
50977;BME280;36992;48.200;12.418;2023-04-08T04:22:15;96783.25;;;9.03;51.82
50977;BME280;36992;48.200;12.418;2023-04-08T04:24:45;96784.59;;;9.06;50.77
50977;BME280;36992;48.200;12.418;2023-04-08T04:27:12;96781.66;;;9.02;51.96
50977;BME280;36992;48.200;12.418;2023-04-08T04:29:39;96789.47;;;9.03;52.15
50977;BME280;36992;48.200;12.418;2023-04-08T04:32:06;96788.13;;;9.01;52.80
50977;BME280;36992;48.200;12.418;2023-04-08T04:34:34;96785.94;;;9.03;51.82
50977;BME280;36992;48.200;12.418;2023-04-08T04:37:00;96791.63;;;9.01;52.01
50977;BME280;36992;48.200;12.418;2023-04-08T04:39:27;96791.63;;;9.01;51.57
50977;BME280;36992;48.200;12.418;2023-04-08T04:41:53;96786.25;;;9.01;52.15
50977;BME280;36992;48.200;12.418;2023-04-08T04:44:19;96788.63;;;9.03;51.63
50977;BME280;36992;48.200;12.418;2023-04-08T04:46:46;96793.22;;;9.02;51.91
50977;BME280;36992;48.200;12.418;2023-04-08T04:49:12;96785.94;;;9.03;51.95
50977;BME280;36992;48.200;12.418;2023-04-08T04:51:40;96794.81;;;9.03;52.44
50977;BME280;36992;48.200;12.418;2023-04-08T04:54:07;96789.47;;;9.03;52.86
50977;BME280;36992;48.200;12.418;2023-04-08T04:56:33;96795.66;;;9.04;51.84
50977;BME280;36992;48.200;12.418;2023-04-08T04:59:00;96794.81;;;9.03;52.55
50977;BME280;36992;48.200;12.418;2023-04-08T05:01:26;96794.81;;;9.03;52.49
50977;BME280;36992;48.200;12.418;2023-04-08T05:03:54;96798.31;;;9.04;52.80
50977;BME280;36992;48.200;12.418;2023-04-08T05:06:22;96803.13;;;9.07;52.11
50977;BME280;36992;48.200;12.418;2023-04-08T05:08:49;96805.81;;;9.07;52.36
50977;BME280;36992;48.200;12.418;2023-04-08T05:11:16;96805.31;;;9.05;52.96
50977;BME280;36992;48.200;12.418;2023-04-08T05:13:43;96812.56;;;9.04;53.21
50977;BME280;36992;48.200;12.418;2023-04-08T05:16:09;96809.88;;;9.04;53.20
50977;BME280;36992;48.200;12.418;2023-04-08T05:18:36;96816.31;;;9.03;52.89
50977;BME280;36992;48.200;12.418;2023-04-08T05:21:02;96815.50;;;9.03;52.87
50977;BME280;36992;48.200;12.418;2023-04-08T05:23:29;96829.75;;;9.03;52.93
50977;BME280;36992;48.200;12.418;2023-04-08T05:25:57;96824.91;;;9.06;53.44
50977;BME280;36992;48.200;12.418;2023-04-08T05:28:24;96822.22;;;9.06;52.51
50977;BME280;36992;48.200;12.418;2023-04-08T05:30:51;96822.22;;;9.06;52.96
50977;BME280;36992;48.200;12.418;2023-04-08T05:33:19;96825.72;;;9.06;53.59
50977;BME280;36992;48.200;12.418;2023-04-08T05:35:45;96823.53;;;9.08;52.66
50977;BME280;36992;48.200;12.418;2023-04-08T05:38:12;96828.91;;;9.08;53.10
50977;BME280;36992;48.200;12.418;2023-04-08T05:40:38;96824.34;;;9.09;52.80
50977;BME280;36992;48.200;12.418;2023-04-08T05:43:06;96831.84;;;9.12;52.71
50977;BME280;36992;48.200;12.418;2023-04-08T05:45:32;96826.78;;;9.10;53.06
50977;BME280;36992;48.200;12.418;2023-04-08T05:47:59;96829.97;;;9.12;52.96
50977;BME280;36992;48.200;12.418;2023-04-08T05:50:26;96841.50;;;9.13;53.68
50977;BME280;36992;48.200;12.418;2023-04-08T05:52:52;96843.94;;;9.14;53.58
50977;BME280;36992;48.200;12.418;2023-04-08T05:55:19;96847.44;;;9.15;53.46
50977;BME280;36992;48.200;12.418;2023-04-08T05:57:46;96844.75;;;9.15;53.55
50977;BME280;36992;48.200;12.418;2023-04-08T06:00:14;96833.41;;;9.18;52.41
50977;BME280;36992;48.200;12.418;2023-04-08T06:02:41;96844.16;;;9.18;52.61
50977;BME280;36992;48.200;12.418;2023-04-08T06:05:08;96844.72;;;9.20;52.24
50977;BME280;36992;48.200;12.418;2023-04-08T06:07:34;96845.22;;;9.22;52.57
50977;BME280;36992;48.200;12.418;2023-04-08T06:10:01;96850.03;;;9.25;52.84
50977;BME280;36992;48.200;12.418;2023-04-08T06:12:29;96854.03;;;9.28;52.59
50977;BME280;36992;48.200;12.418;2023-04-08T06:14:56;96868.81;;;9.30;52.48
50977;BME280;36992;48.200;12.418;2023-04-08T06:17:24;96874.72;;;9.33;52.12
50977;BME280;36992;48.200;12.418;2023-04-08T06:19:50;96869.34;;;9.33;52.74
50977;BME280;36992;48.200;12.418;2023-04-08T06:22:17;96869.88;;;9.35;52.94
50977;BME280;36992;48.200;12.418;2023-04-08T06:24:43;96868.78;;;9.36;51.19
50977;BME280;36992;48.200;12.418;2023-04-08T06:27:12;96874.97;;;9.36;51.84
50977;BME280;36992;48.200;12.418;2023-04-08T06:29:38;96881.69;;;9.39;51.76
50977;BME280;36992;48.200;12.418;2023-04-08T06:32:05;96880.00;;;9.43;51.62
50977;BME280;36992;48.200;12.418;2023-04-08T06:34:33;96885.34;;;9.48;51.56
50977;BME280;36992;48.200;12.418;2023-04-08T06:36:59;96886.19;;;9.49;51.80
50977;BME280;36992;48.200;12.418;2023-04-08T06:39:26;96881.31;;;9.51;51.21
50977;BME280;36992;48.200;12.418;2023-04-08T06:41:53;96890.72;;;9.53;50.94
50977;BME280;36992;48.200;12.418;2023-04-08T06:44:19;96892.31;;;9.54;50.18
50977;BME280;36992;48.200;12.418;2023-04-08T06:46:46;96899.28;;;9.55;50.53
50977;BME280;36992;48.200;12.418;2023-04-08T06:49:12;96899.28;;;9.55;50.53
50977;BME280;36992;48.200;12.418;2023-04-08T06:51:40;96899.81;;;9.57;50.53
50977;BME280;36992;48.200;12.418;2023-04-08T06:54:07;96907.34;;;9.55;51.14
50977;BME280;36992;48.200;12.418;2023-04-08T06:56:34;96914.34;;;9.56;50.94
50977;BME280;36992;48.200;12.418;2023-04-08T06:59:00;96908.44;;;9.54;51.49
50977;BME280;36992;48.200;12.418;2023-04-08T07:01:27;96914.34;;;9.56;51.51
50977;BME280;36992;48.200;12.418;2023-04-08T07:03:53;96918.66;;;9.57;51.03
50977;BME280;36992;48.200;12.418;2023-04-08T07:06:20;96918.09;;;9.55;50.26
50977;BME280;36992;48.200;12.418;2023-04-08T07:08:48;96920.81;;;9.55;49.88
50977;BME280;36992;48.200;12.418;2023-04-08T07:11:15;96927.03;;;9.51;49.37
50977;BME280;36992;48.200;12.418;2023-04-08T07:13:42;96933.25;;;9.46;49.73
50977;BME280;36992;48.200;12.418;2023-04-08T07:16:08;96922.53;;;9.41;49.71
50977;BME280;36992;48.200;12.418;2023-04-08T07:18:35;96926.84;;;9.37;49.98
50977;BME280;36992;48.200;12.418;2023-04-08T07:21:02;96924.47;;;9.30;50.03
50977;BME280;36992;48.200;12.418;2023-04-08T07:23:28;96935.00;;;9.26;49.57
50977;BME280;36992;48.200;12.418;2023-04-08T07:26:01;96929.06;;;9.24;49.90
50977;BME280;36992;48.200;12.418;2023-04-08T07:28:27;96933.47;;;9.10;49.87
50977;BME280;36992;48.200;12.418;2023-04-08T07:30:54;96932.38;;;9.06;50.42
50977;BME280;36992;48.200;12.418;2023-04-08T07:33:21;96943.72;;;8.97;50.03
50977;BME280;36992;48.200;12.418;2023-04-08T07:35:48;96933.50;;;8.94;50.41
50977;BME280;36992;48.200;12.418;2023-04-08T07:38:15;96938.13;;;8.88;49.90
50977;BME280;36992;48.200;12.418;2023-04-08T07:40:41;96933.84;;;8.82;50.47
50977;BME280;36992;48.200;12.418;2023-04-08T07:43:09;96930.66;;;8.80;50.08
50977;BME280;36992;48.200;12.418;2023-04-08T07:45:35;96931.75;;;8.74;50.54
50977;BME280;36992;48.200;12.418;2023-04-08T07:48:02;96936.28;;;8.73;50.67
50977;BME280;36992;48.200;12.418;2023-04-08T07:50:28;96937.66;;;8.71;50.39
50977;BME280;36992;48.200;12.418;2023-04-08T07:52:55;96937.91;;;8.69;50.00
50977;BME280;36992;48.200;12.418;2023-04-08T07:55:22;96933.63;;;8.68;50.93
50977;BME280;36992;48.200;12.418;2023-04-08T07:57:48;96939.00;;;8.68;51.27
50977;BME280;36992;48.200;12.418;2023-04-08T08:00:16;96931.19;;;8.72;51.14
50977;BME280;36992;48.200;12.418;2023-04-08T08:02:45;96934.69;;;8.72;51.93
50977;BME280;36992;48.200;12.418;2023-04-08T08:05:12;96938.72;;;8.75;51.71
50977;BME280;36992;48.200;12.418;2023-04-08T08:07:39;96940.31;;;8.76;51.04
50977;BME280;36992;48.200;12.418;2023-04-08T08:10:07;96938.97;;;8.79;51.55
50977;BME280;36992;48.200;12.418;2023-04-08T08:12:33;96937.63;;;8.81;51.62
50977;BME280;36992;48.200;12.418;2023-04-08T08:15:00;96949.16;;;8.82;51.75
50977;BME280;36992;48.200;12.418;2023-04-08T08:17:28;96944.06;;;8.85;51.71
50977;BME280;36992;48.200;12.418;2023-04-08T08:19:57;96949.13;;;8.87;51.26
50977;BME280;36992;48.200;12.418;2023-04-08T08:22:24;96950.22;;;8.81;50.47
50977;BME280;36992;48.200;12.418;2023-04-08T08:24:54;96946.47;;;8.82;50.72
50977;BME280;36992;48.200;12.418;2023-04-08T08:27:21;96952.41;;;8.73;50.85
50977;BME280;36992;48.200;12.418;2023-04-08T08:29:48;96957.78;;;8.68;51.93
50977;BME280;36992;48.200;12.418;2023-04-08T08:32:15;96958.88;;;8.67;52.35
50977;BME280;36992;48.200;12.418;2023-04-08T08:34:42;96957.78;;;8.68;51.80
50977;BME280;36992;48.200;12.418;2023-04-08T08:37:09;96956.75;;;8.64;51.92
50977;BME280;36992;48.200;12.418;2023-04-08T08:39:35;96964.25;;;8.62;51.07
50977;BME280;36992;48.200;12.418;2023-04-08T08:42:02;96962.13;;;8.59;52.52
50977;BME280;36992;48.200;12.418;2023-04-08T08:44:29;96966.94;;;8.57;52.47
50977;BME280;36992;48.200;12.418;2023-04-08T08:46:55;96961.06;;;8.55;52.09
50977;BME280;36992;48.200;12.418;2023-04-08T08:49:22;96971.28;;;8.53;52.43
50977;BME280;36992;48.200;12.418;2023-04-08T08:51:51;96973.97;;;8.53;52.21
50977;BME280;36992;48.200;12.418;2023-04-08T08:54:20;96978.22;;;8.48;53.32
50977;BME280;36992;48.200;12.418;2023-04-08T08:56:46;96972.34;;;8.46;53.39
50977;BME280;36992;48.200;12.418;2023-04-08T08:59:13;96972.06;;;8.48;53.97
50977;BME280;36992;48.200;12.418;2023-04-08T09:01:39;96957.81;;;8.47;53.65
50977;BME280;36992;48.200;12.418;2023-04-08T09:04:13;96972.59;;;8.50;53.11
50977;BME280;36992;48.200;12.418;2023-04-08T09:06:41;96969.09;;;8.49;53.80
50977;BME280;36992;48.200;12.418;2023-04-08T09:09:09;96968.00;;;8.50;53.53
50977;BME280;36992;48.200;12.418;2023-04-08T09:11:36;96970.47;;;8.52;54.23
50977;BME280;36992;48.200;12.418;2023-04-08T09:14:04;96975.56;;;8.54;54.68
50977;BME280;36992;48.200;12.418;2023-04-08T09:16:31;96961.88;;;8.55;54.78
50977;BME280;36992;48.200;12.418;2023-04-08T09:19:08;96956.19;;;8.62;53.69
50977;BME280;36992;48.200;12.418;2023-04-08T09:21:35;96959.97;;;8.61;53.70
50977;BME280;36992;48.200;12.418;2023-04-08T09:24:01;96958.09;;;8.61;54.86
50977;BME280;36992;48.200;12.418;2023-04-08T09:26:29;96963.72;;;8.65;55.27
50977;BME280;36992;48.200;12.418;2023-04-08T09:28:57;96961.03;;;8.65;54.79
50977;BME280;36992;48.200;12.418;2023-04-08T09:31:26;96965.84;;;8.68;53.96
50977;BME280;36992;48.200;12.418;2023-04-08T09:33:54;96954.84;;;8.70;53.87
50977;BME280;36992;48.200;12.418;2023-04-08T09:36:21;96963.16;;;8.73;54.06
50977;BME280;36992;48.200;12.418;2023-04-08T09:38:47;96963.16;;;8.73;54.79
50977;BME280;36992;48.200;12.418;2023-04-08T09:41:15;96954.56;;;8.76;54.71
50977;BME280;36992;48.200;12.418;2023-04-08T09:43:46;96953.16;;;8.84;53.73
50977;BME280;36992;48.200;12.418;2023-04-08T09:46:15;96963.66;;;8.86;53.96
50977;BME280;36992;48.200;12.418;2023-04-08T09:48:48;96959.34;;;8.90;52.89
50977;BME280;36992;48.200;12.418;2023-04-08T09:51:18;96964.72;;;8.90;52.81
50977;BME280;36992;48.200;12.418;2023-04-08T09:53:46;96953.72;;;8.92;53.19
50977;BME280;36992;48.200;12.418;2023-04-08T09:56:14;96952.63;;;8.93;52.96
50977;BME280;36992;48.200;12.418;2023-04-08T09:58:50;96962.53;;;8.97;52.38
50977;BME280;36992;48.200;12.418;2023-04-08T10:01:21;96956.09;;;8.93;52.16
50977;BME280;36992;48.200;12.418;2023-04-08T10:03:53;96956.66;;;8.95;52.01
50977;BME280;36992;48.200;12.418;2023-04-08T10:06:21;96963.63;;;8.91;52.62
50977;BME280;36992;48.200;12.418;2023-04-08T10:08:53;96962.03;;;8.90;52.57
50977;BME280;36992;48.200;12.418;2023-04-08T10:11:20;96960.94;;;8.91;52.60
50977;BME280;36992;48.200;12.418;2023-04-08T10:13:48;96965.75;;;8.94;52.58
50977;BME280;36992;48.200;12.418;2023-04-08T10:16:23;96962.03;;;8.95;52.02
50977;BME280;36992;48.200;12.418;2023-04-08T10:18:51;96972.22;;;8.93;52.77
50977;BME280;36992;48.200;12.418;2023-04-08T10:21:37;96970.03;;;9.00;51.76
50977;BME280;36992;48.200;12.418;2023-04-08T10:24:07;96982.94;;;8.98;52.75
50977;BME280;36992;48.200;12.418;2023-04-08T10:26:44;96967.34;;;9.00;52.00
50977;BME280;36992;48.200;12.418;2023-04-08T10:29:41;96972.19;;;9.03;51.83
50977;BME280;36992;48.200;12.418;2023-04-08T10:32:08;96981.06;;;8.99;53.11
50977;BME280;36992;48.200;12.418;2023-04-08T10:34:50;96981.84;;;9.04;52.39
50977;BME280;36992;48.200;12.418;2023-04-08T10:37:18;96985.09;;;9.01;52.92
50977;BME280;36992;48.200;12.418;2023-04-08T10:39:48;96980.50;;;9.02;52.37
50977;BME280;36992;48.200;12.418;2023-04-08T10:42:14;96981.88;;;8.99;52.58
50977;BME280;36992;48.200;12.418;2023-04-08T10:44:44;96988.31;;;8.98;53.11
50977;BME280;36992;48.200;12.418;2023-04-08T10:47:11;96977.59;;;8.93;52.61
50977;BME280;36992;48.200;12.418;2023-04-08T10:49:38;96994.28;;;8.90;53.10
50977;BME280;36992;48.200;12.418;2023-04-08T10:52:06;96991.03;;;8.88;53.10
50977;BME280;36992;48.200;12.418;2023-04-08T10:54:33;96989.44;;;8.87;53.23
50977;BME280;36992;48.200;12.418;2023-04-08T10:57:00;96987.81;;;8.86;52.76
50977;BME280;36992;48.200;12.418;2023-04-08T10:59:28;96993.19;;;8.86;52.87
50977;BME280;36992;48.200;12.418;2023-04-08T11:01:57;96993.72;;;8.88;52.75
50977;BME280;36992;48.200;12.418;2023-04-08T11:04:25;96987.81;;;8.86;52.96
50977;BME280;36992;48.200;12.418;2023-04-08T11:06:52;96992.66;;;8.89;52.48
50977;BME280;36992;48.200;12.418;2023-04-08T11:09:18;96995.88;;;8.86;52.79
50977;BME280;36992;48.200;12.418;2023-04-08T11:11:45;97001.53;;;8.84;52.78
50977;BME280;36992;48.200;12.418;2023-04-08T11:14:13;96993.75;;;8.83;52.95
50977;BME280;36992;48.200;12.418;2023-04-08T11:16:41;96996.44;;;8.83;52.70
50977;BME280;36992;48.200;12.418;2023-04-08T11:19:09;96999.13;;;8.83;52.88
50977;BME280;36992;48.200;12.418;2023-04-08T11:21:39;96997.50;;;8.82;52.57
50977;BME280;36992;48.200;12.418;2023-04-08T11:24:06;97006.13;;;8.84;51.80
50977;BME280;36992;48.200;12.418;2023-04-08T11:26:35;96999.66;;;8.85;52.44
50977;BME280;36992;48.200;12.418;2023-04-08T11:29:02;97000.75;;;8.84;52.56
50977;BME280;36992;48.200;12.418;2023-04-08T11:31:31;97005.84;;;8.85;52.37
50977;BME280;36992;48.200;12.418;2023-04-08T11:33:57;96998.56;;;8.86;52.21
50977;BME280;36992;48.200;12.418;2023-04-08T11:36:27;97000.16;;;8.92;51.90
50977;BME280;36992;48.200;12.418;2023-04-08T11:38:54;97003.13;;;8.90;51.86
50977;BME280;36992;48.200;12.418;2023-04-08T11:41:20;97006.63;;;8.91;52.03
50977;BME280;36992;48.200;12.418;2023-04-08T11:43:52;97010.91;;;8.97;51.71
50977;BME280;36992;48.200;12.418;2023-04-08T11:46:18;97012.00;;;8.91;51.75
50977;BME280;36992;48.200;12.418;2023-04-08T11:49:02;97005.53;;;8.97;50.92
50977;BME280;36992;48.200;12.418;2023-04-08T11:51:31;97010.13;;;8.92;51.48
50977;BME280;36992;48.200;12.418;2023-04-08T11:53:58;97006.09;;;8.89;51.24
50977;BME280;36992;48.200;12.418;2023-04-08T11:56:25;97001.00;;;8.87;51.86
50977;BME280;36992;48.200;12.418;2023-04-08T11:58:53;97007.16;;;8.88;51.72
50977;BME280;36992;48.200;12.418;2023-04-08T12:01:19;97003.94;;;8.86;52.04
50977;BME280;36992;48.200;12.418;2023-04-08T12:03:57;97008.22;;;8.92;51.40
50977;BME280;36992;48.200;12.418;2023-04-08T12:06:26;97015.75;;;8.90;51.41
50977;BME280;36992;48.200;12.418;2023-04-08T12:08:55;97017.63;;;8.95;51.67
50977;BME280;36992;48.200;12.418;2023-04-08T12:11:24;97010.41;;;8.90;51.62
50977;BME280;36992;48.200;12.418;2023-04-08T12:13:51;97017.38;;;8.91;51.91
50977;BME280;36992;48.200;12.418;2023-04-08T12:16:18;97018.97;;;8.92;51.38
50977;BME280;36992;48.200;12.418;2023-04-08T12:18:46;97018.19;;;8.92;51.67
50977;BME280;36992;48.200;12.418;2023-04-08T12:21:13;97018.19;;;8.92;51.78
50977;BME280;36992;48.200;12.418;2023-04-08T12:23:40;97020.56;;;8.93;51.68
50977;BME280;36992;48.200;12.418;2023-04-08T12:26:08;97020.03;;;8.96;52.02
50977;BME280;36992;48.200;12.418;2023-04-08T12:28:35;97020.03;;;8.96;51.86
50977;BME280;36992;48.200;12.418;2023-04-08T12:31:02;97019.47;;;8.99;51.71
50977;BME280;36992;48.200;12.418;2023-04-08T12:33:29;97028.09;;;9.01;51.41
50977;BME280;36992;48.200;12.418;2023-04-08T12:35:56;97024.59;;;9.01;51.82
50977;BME280;36992;48.200;12.418;2023-04-08T12:38:26;97028.09;;;9.01;51.78
50977;BME280;36992;48.200;12.418;2023-04-08T12:40:53;97028.63;;;9.03;51.58
50977;BME280;36992;48.200;12.418;2023-04-08T12:43:25;97023.75;;;9.06;51.73
50977;BME280;36992;48.200;12.418;2023-04-08T12:45:51;97028.09;;;9.01;51.81
50977;BME280;36992;48.200;12.418;2023-04-08T12:48:26;97029.69;;;9.02;51.38
50977;BME280;36992;48.200;12.418;2023-04-08T12:54:34;97032.38;;;9.02;51.85
50977;BME280;36992;48.200;12.418;2023-04-08T12:57:04;97034.00;;;8.98;52.77
50977;BME280;36992;48.200;12.418;2023-04-08T12:59:58;97037.22;;;9.00;52.26
50977;BME280;36992;48.200;12.418;2023-04-08T13:03:39;97032.41;;;8.97;52.41
50977;BME280;36992;48.200;12.418;2023-04-08T13:05:41;97036.69;;;8.93;52.88
50977;BME280;36992;48.200;12.418;2023-04-08T13:08:07;97038.59;;;8.87;53.33